sensor_id;sensor_type;location;lat;lon;timestamp;P1;durP1;ratioP1;P2;durP2;ratioP2
10497;SDS011;5296;51.060;13.750;2023-05-29T00:01:33;7.63;;;5.60;;
10497;SDS011;5296;51.060;13.750;2023-05-29T00:06:35;6.30;;;5.53;;
10497;SDS011;5296;51.060;13.750;2023-05-29T00:11:37;7.22;;;4.82;;
10497;SDS011;5296;51.060;13.750;2023-05-29T00:16:39;5.35;;;4.85;;
10497;SDS011;5296;51.060;13.750;2023-05-29T00:21:41;6.53;;;5.40;;
10497;SDS011;5296;51.060;13.750;2023-05-29T00:26:43;5.45;;;4.68;;
10497;SDS011;5296;51.060;13.750;2023-05-29T00:31:45;5.82;;;5.32;;
10497;SDS011;5296;51.060;13.750;2023-05-29T00:36:46;5.50;;;4.78;;
10497;SDS011;5296;51.060;13.750;2023-05-29T00:41:49;5.53;;;5.03;;
10497;SDS011;5296;51.060;13.750;2023-05-29T00:46:53;5.88;;;4.82;;
10497;SDS011;5296;51.060;13.750;2023-05-29T00:51:55;5.55;;;4.93;;
10497;SDS011;5296;51.060;13.750;2023-05-29T00:56:57;5.78;;;4.90;;
10497;SDS011;5296;51.060;13.750;2023-05-29T01:02:00;6.10;;;5.13;;
10497;SDS011;5296;51.060;13.750;2023-05-29T01:07:03;5.75;;;5.25;;
10497;SDS011;5296;51.060;13.750;2023-05-29T01:23:07;6.28;;;4.85;;
10497;SDS011;5296;51.060;13.750;2023-05-29T01:28:25;6.60;;;4.95;;
10497;SDS011;5296;51.060;13.750;2023-05-29T01:33:29;6.80;;;4.88;;
10497;SDS011;5296;51.060;13.750;2023-05-29T01:38:31;6.90;;;4.75;;
10497;SDS011;5296;51.060;13.750;2023-05-29T01:43:33;6.20;;;4.93;;
10497;SDS011;5296;51.060;13.750;2023-05-29T01:48:35;5.25;;;4.68;;
10497;SDS011;5296;51.060;13.750;2023-05-29T01:53:37;5.25;;;4.35;;
10497;SDS011;5296;51.060;13.750;2023-05-29T01:58:39;5.07;;;4.50;;
10497;SDS011;5296;51.060;13.750;2023-05-29T02:03:41;6.25;;;4.90;;
10497;SDS011;5296;51.060;13.750;2023-05-29T02:08:43;6.22;;;4.72;;
10497;SDS011;5296;51.060;13.750;2023-05-29T02:13:45;6.10;;;4.45;;
10497;SDS011;5296;51.060;13.750;2023-05-29T02:18:46;4.95;;;3.88;;
10497;SDS011;5296;51.060;13.750;2023-05-29T02:23:48;6.30;;;4.50;;
10497;SDS011;5296;51.060;13.750;2023-05-29T02:28:51;4.90;;;4.40;;
10497;SDS011;5296;51.060;13.750;2023-05-29T02:33:54;7.85;;;4.10;;
10497;SDS011;5296;51.060;13.750;2023-05-29T02:38:56;8.80;;;4.50;;
10497;SDS011;5296;51.060;13.750;2023-05-29T02:43:57;4.20;;;3.80;;
10497;SDS011;5296;51.060;13.750;2023-05-29T02:48:59;4.88;;;3.95;;
10497;SDS011;5296;51.060;13.750;2023-05-29T02:54:01;4.30;;;3.90;;
10497;SDS011;5296;51.060;13.750;2023-05-29T02:59:03;4.57;;;3.97;;
10497;SDS011;5296;51.060;13.750;2023-05-29T03:04:04;5.50;;;4.40;;
10497;SDS011;5296;51.060;13.750;2023-05-29T03:09:06;4.13;;;3.75;;
10497;SDS011;5296;51.060;13.750;2023-05-29T03:14:08;4.40;;;4.00;;
10497;SDS011;5296;51.060;13.750;2023-05-29T03:19:10;5.38;;;4.38;;
10497;SDS011;5296;51.060;13.750;2023-05-29T03:24:12;4.90;;;4.40;;
10497;SDS011;5296;51.060;13.750;2023-05-29T03:29:18;5.38;;;4.13;;
10497;SDS011;5296;51.060;13.750;2023-05-29T03:34:20;5.63;;;4.35;;
10497;SDS011;5296;51.060;13.750;2023-05-29T03:39:29;5.72;;;4.18;;
10497;SDS011;5296;51.060;13.750;2023-05-29T03:44:32;7.65;;;4.22;;
10497;SDS011;5296;51.060;13.750;2023-05-29T03:49:34;5.93;;;3.88;;
10497;SDS011;5296;51.060;13.750;2023-05-29T03:54:37;6.47;;;4.07;;
10497;SDS011;5296;51.060;13.750;2023-05-29T03:59:39;5.72;;;4.35;;
10497;SDS011;5296;51.060;13.750;2023-05-29T04:04:41;5.45;;;3.97;;
10497;SDS011;5296;51.060;13.750;2023-05-29T04:09:44;5.60;;;4.15;;
10497;SDS011;5296;51.060;13.750;2023-05-29T04:14:46;6.28;;;4.32;;
10497;SDS011;5296;51.060;13.750;2023-05-29T04:19:48;4.57;;;4.10;;
10497;SDS011;5296;51.060;13.750;2023-05-29T04:24:50;4.63;;;3.47;;
10497;SDS011;5296;51.060;13.750;2023-05-29T04:29:52;6.68;;;4.43;;
10497;SDS011;5296;51.060;13.750;2023-05-29T04:34:55;5.63;;;4.10;;
10497;SDS011;5296;51.060;13.750;2023-05-29T04:39:57;4.57;;;4.18;;
10497;SDS011;5296;51.060;13.750;2023-05-29T04:45:01;4.63;;;3.65;;
10497;SDS011;5296;51.060;13.750;2023-05-29T04:50:03;4.32;;;3.92;;
10497;SDS011;5296;51.060;13.750;2023-05-29T04:55:06;5.25;;;4.20;;
10497;SDS011;5296;51.060;13.750;2023-05-29T05:00:08;5.15;;;4.53;;
10497;SDS011;5296;51.060;13.750;2023-05-29T05:05:16;5.47;;;4.32;;
10497;SDS011;5296;51.060;13.750;2023-05-29T05:10:18;5.25;;;4.55;;
10497;SDS011;5296;51.060;13.750;2023-05-29T05:15:20;5.28;;;4.78;;
10497;SDS011;5296;51.060;13.750;2023-05-29T05:20:21;7.72;;;4.55;;
10497;SDS011;5296;51.060;13.750;2023-05-29T05:25:29;7.35;;;4.53;;
10497;SDS011;5296;51.060;13.750;2023-05-29T05:30:30;5.07;;;4.15;;
10497;SDS011;5296;51.060;13.750;2023-05-29T05:35:33;5.18;;;4.60;;
10497;SDS011;5296;51.060;13.750;2023-05-29T05:40:35;6.47;;;5.03;;
10497;SDS011;5296;51.060;13.750;2023-05-29T05:45:46;6.88;;;4.63;;
10497;SDS011;5296;51.060;13.750;2023-05-29T05:50:49;5.78;;;4.82;;
10497;SDS011;5296;51.060;13.750;2023-05-29T05:55:53;5.32;;;4.80;;
10497;SDS011;5296;51.060;13.750;2023-05-29T06:00:55;6.63;;;4.57;;
10497;SDS011;5296;51.060;13.750;2023-05-29T06:06:00;6.32;;;4.85;;
10497;SDS011;5296;51.060;13.750;2023-05-29T06:11:02;6.15;;;4.57;;
10497;SDS011;5296;51.060;13.750;2023-05-29T06:16:06;5.13;;;4.63;;
10497;SDS011;5296;51.060;13.750;2023-05-29T06:21:11;6.60;;;4.80;;
10497;SDS011;5296;51.060;13.750;2023-05-29T06:26:20;6.88;;;4.40;;
10497;SDS011;5296;51.060;13.750;2023-05-29T06:31:24;5.53;;;4.93;;
10497;SDS011;5296;51.060;13.750;2023-05-29T06:36:26;5.78;;;4.47;;
10497;SDS011;5296;51.060;13.750;2023-05-29T06:41:27;6.20;;;5.15;;
10497;SDS011;5296;51.060;13.750;2023-05-29T06:46:29;5.93;;;4.97;;
10497;SDS011;5296;51.060;13.750;2023-05-29T06:51:33;7.07;;;4.60;;
10497;SDS011;5296;51.060;13.750;2023-05-29T06:56:34;5.30;;;4.30;;
10497;SDS011;5296;51.060;13.750;2023-05-29T07:01:36;7.88;;;4.45;;
10497;SDS011;5296;51.060;13.750;2023-05-29T07:06:39;5.70;;;4.07;;
10497;SDS011;5296;51.060;13.750;2023-05-29T07:11:41;5.30;;;4.30;;
10497;SDS011;5296;51.060;13.750;2023-05-29T07:16:43;7.18;;;4.25;;
10497;SDS011;5296;51.060;13.750;2023-05-29T07:21:46;5.45;;;4.43;;
10497;SDS011;5296;51.060;13.750;2023-05-29T07:26:50;5.03;;;3.50;;
10497;SDS011;5296;51.060;13.750;2023-05-29T07:31:52;4.38;;;3.58;;
10497;SDS011;5296;51.060;13.750;2023-05-29T07:42:04;5.07;;;3.80;;
10497;SDS011;5296;51.060;13.750;2023-05-29T07:47:09;6.20;;;3.40;;
10497;SDS011;5296;51.060;13.750;2023-05-29T07:52:15;3.92;;;3.53;;
10497;SDS011;5296;51.060;13.750;2023-05-29T07:57:17;5.85;;;3.97;;
10497;SDS011;5296;51.060;13.750;2023-05-29T08:02:19;3.72;;;3.33;;
10497;SDS011;5296;51.060;13.750;2023-05-29T08:07:40;4.15;;;3.38;;
10497;SDS011;5296;51.060;13.750;2023-05-29T08:12:42;4.30;;;3.50;;
10497;SDS011;5296;51.060;13.750;2023-05-29T08:17:44;4.43;;;3.67;;
10497;SDS011;5296;51.060;13.750;2023-05-29T08:22:46;6.28;;;3.63;;
10497;SDS011;5296;51.060;13.750;2023-05-29T08:27:48;7.20;;;4.05;;
10497;SDS011;5296;51.060;13.750;2023-05-29T08:32:49;4.32;;;3.05;;
10497;SDS011;5296;51.060;13.750;2023-05-29T08:37:51;4.90;;;3.00;;
10497;SDS011;5296;51.060;13.750;2023-05-29T08:42:57;3.38;;;3.00;;
10497;SDS011;5296;51.060;13.750;2023-05-29T08:48:01;6.03;;;2.90;;
10497;SDS011;5296;51.060;13.750;2023-05-29T08:53:03;5.47;;;3.00;;
10497;SDS011;5296;51.060;13.750;2023-05-29T08:58:08;5.00;;;3.25;;
10497;SDS011;5296;51.060;13.750;2023-05-29T09:03:11;3.42;;;2.88;;
10497;SDS011;5296;51.060;13.750;2023-05-29T09:08:14;3.20;;;2.90;;
10497;SDS011;5296;51.060;13.750;2023-05-29T09:13:16;3.65;;;2.90;;
10497;SDS011;5296;51.060;13.750;2023-05-29T09:18:18;4.53;;;3.05;;
10497;SDS011;5296;51.060;13.750;2023-05-29T09:23:19;4.45;;;2.85;;
10497;SDS011;5296;51.060;13.750;2023-05-29T09:28:21;6.13;;;2.92;;
10497;SDS011;5296;51.060;13.750;2023-05-29T09:33:25;3.33;;;2.47;;
10497;SDS011;5296;51.060;13.750;2023-05-29T09:38:26;5.32;;;2.60;;
10497;SDS011;5296;51.060;13.750;2023-05-29T09:43:48;6.47;;;3.05;;
10497;SDS011;5296;51.060;13.750;2023-05-29T09:48:51;4.85;;;2.60;;
10497;SDS011;5296;51.060;13.750;2023-05-29T09:53:52;3.60;;;2.70;;
10497;SDS011;5296;51.060;13.750;2023-05-29T09:58:55;3.53;;;3.15;;
10497;SDS011;5296;51.060;13.750;2023-05-29T10:03:57;4.97;;;2.42;;
10497;SDS011;5296;51.060;13.750;2023-05-29T10:08:59;4.45;;;2.50;;
10497;SDS011;5296;51.060;13.750;2023-05-29T10:14:01;2.65;;;2.20;;
10497;SDS011;5296;51.060;13.750;2023-05-29T10:19:04;3.03;;;2.60;;
10497;SDS011;5296;51.060;13.750;2023-05-29T10:24:08;5.75;;;3.10;;
10497;SDS011;5296;51.060;13.750;2023-05-29T10:34:25;5.40;;;2.50;;
10497;SDS011;5296;51.060;13.750;2023-05-29T10:39:32;4.30;;;2.67;;
10497;SDS011;5296;51.060;13.750;2023-05-29T10:49:46;5.32;;;2.85;;
10497;SDS011;5296;51.060;13.750;2023-05-29T10:54:51;4.18;;;2.70;;
10497;SDS011;5296;51.060;13.750;2023-05-29T10:59:58;4.47;;;2.75;;
10497;SDS011;5296;51.060;13.750;2023-05-29T11:05:18;4.38;;;2.70;;
10497;SDS011;5296;51.060;13.750;2023-05-29T11:22:09;4.20;;;2.83;;
10497;SDS011;5296;51.060;13.750;2023-05-29T11:26:51;4.43;;;2.70;;
10497;SDS011;5296;51.060;13.750;2023-05-29T11:31:57;3.72;;;2.83;;
10497;SDS011;5296;51.060;13.750;2023-05-29T11:37:02;4.28;;;2.88;;
10497;SDS011;5296;51.060;13.750;2023-05-29T11:42:06;5.30;;;3.03;;
10497;SDS011;5296;51.060;13.750;2023-05-29T11:47:08;3.42;;;2.70;;
10497;SDS011;5296;51.060;13.750;2023-05-29T11:52:11;3.15;;;2.60;;
10497;SDS011;5296;51.060;13.750;2023-05-29T11:57:18;4.30;;;2.70;;
10497;SDS011;5296;51.060;13.750;2023-05-29T12:02:20;3.05;;;2.53;;
10497;SDS011;5296;51.060;13.750;2023-05-29T12:07:24;4.40;;;2.80;;
10497;SDS011;5296;51.060;13.750;2023-05-29T12:12:26;3.22;;;2.83;;
10497;SDS011;5296;51.060;13.750;2023-05-29T12:17:28;3.88;;;2.72;;
10497;SDS011;5296;51.060;13.750;2023-05-29T12:22:32;5.30;;;2.95;;
10497;SDS011;5296;51.060;13.750;2023-05-29T12:27:37;4.25;;;2.80;;
10497;SDS011;5296;51.060;13.750;2023-05-29T12:32:44;3.58;;;2.90;;
10497;SDS011;5296;51.060;13.750;2023-05-29T12:37:48;4.53;;;2.83;;
10497;SDS011;5296;51.060;13.750;2023-05-29T12:42:54;4.65;;;2.97;;
10497;SDS011;5296;51.060;13.750;2023-05-29T12:48:01;4.55;;;2.80;;
10497;SDS011;5296;51.060;13.750;2023-05-29T12:53:05;4.60;;;3.20;;
10497;SDS011;5296;51.060;13.750;2023-05-29T12:58:08;3.17;;;2.83;;
10497;SDS011;5296;51.060;13.750;2023-05-29T13:03:11;4.72;;;3.33;;
10497;SDS011;5296;51.060;13.750;2023-05-29T13:08:13;6.80;;;3.35;;
10497;SDS011;5296;51.060;13.750;2023-05-29T13:13:15;4.95;;;3.13;;
10497;SDS011;5296;51.060;13.750;2023-05-29T13:18:18;5.60;;;3.05;;
10497;SDS011;5296;51.060;13.750;2023-05-29T13:23:20;4.15;;;3.13;;
10497;SDS011;5296;51.060;13.750;2023-05-29T13:28:21;3.83;;;2.88;;
10497;SDS011;5296;51.060;13.750;2023-05-29T13:33:25;3.83;;;2.97;;
10497;SDS011;5296;51.060;13.750;2023-05-29T13:38:27;4.22;;;2.65;;
10497;SDS011;5296;51.060;13.750;2023-05-29T13:43:29;3.85;;;3.03;;
10497;SDS011;5296;51.060;13.750;2023-05-29T13:48:44;4.78;;;3.40;;
10497;SDS011;5296;51.060;13.750;2023-05-29T13:53:46;3.65;;;3.03;;
10497;SDS011;5296;51.060;13.750;2023-05-29T13:58:47;3.30;;;2.65;;
10497;SDS011;5296;51.060;13.750;2023-05-29T14:03:49;4.68;;;3.20;;
10497;SDS011;5296;51.060;13.750;2023-05-29T14:08:51;3.30;;;3.00;;
10497;SDS011;5296;51.060;13.750;2023-05-29T14:13:53;3.90;;;3.15;;
10497;SDS011;5296;51.060;13.750;2023-05-29T14:18:54;5.03;;;3.10;;
10497;SDS011;5296;51.060;13.750;2023-05-29T14:23:58;3.90;;;3.22;;
10497;SDS011;5296;51.060;13.750;2023-05-29T14:28:59;6.38;;;3.25;;
10497;SDS011;5296;51.060;13.750;2023-05-29T14:34:14;6.03;;;3.00;;
10497;SDS011;5296;51.060;13.750;2023-05-29T14:39:15;3.30;;;3.00;;
10497;SDS011;5296;51.060;13.750;2023-05-29T14:44:17;4.15;;;2.72;;
10497;SDS011;5296;51.060;13.750;2023-05-29T14:49:19;4.28;;;3.05;;
10497;SDS011;5296;51.060;13.750;2023-05-29T14:54:22;4.45;;;3.20;;
10497;SDS011;5296;51.060;13.750;2023-05-29T14:59:24;5.97;;;3.33;;
10497;SDS011;5296;51.060;13.750;2023-05-29T15:04:26;4.30;;;3.03;;
10497;SDS011;5296;51.060;13.750;2023-05-29T15:09:28;4.32;;;2.90;;
10497;SDS011;5296;51.060;13.750;2023-05-29T15:14:30;3.63;;;3.10;;
10497;SDS011;5296;51.060;13.750;2023-05-29T15:19:31;4.72;;;3.10;;
10497;SDS011;5296;51.060;13.750;2023-05-29T15:24:33;5.10;;;3.25;;
10497;SDS011;5296;51.060;13.750;2023-05-29T15:29:35;4.97;;;3.10;;
10497;SDS011;5296;51.060;13.750;2023-05-29T15:34:37;4.28;;;3.03;;
10497;SDS011;5296;51.060;13.750;2023-05-29T15:39:41;4.10;;;3.08;;
10497;SDS011;5296;51.060;13.750;2023-05-29T15:44:43;5.03;;;3.55;;
10497;SDS011;5296;51.060;13.750;2023-05-29T15:49:45;4.03;;;3.17;;
10497;SDS011;5296;51.060;13.750;2023-05-29T15:54:46;4.57;;;2.88;;
10497;SDS011;5296;51.060;13.750;2023-05-29T15:59:48;5.15;;;3.38;;
10497;SDS011;5296;51.060;13.750;2023-05-29T16:04:50;5.30;;;3.60;;
10497;SDS011;5296;51.060;13.750;2023-05-29T16:10:07;4.05;;;3.33;;
10497;SDS011;5296;51.060;13.750;2023-05-29T16:15:09;5.38;;;2.97;;
10497;SDS011;5296;51.060;13.750;2023-05-29T16:20:11;3.72;;;3.13;;
10497;SDS011;5296;51.060;13.750;2023-05-29T16:25:13;4.78;;;3.10;;
10497;SDS011;5296;51.060;13.750;2023-05-29T16:30:15;5.13;;;3.55;;
10497;SDS011;5296;51.060;13.750;2023-05-29T16:35:17;4.05;;;3.38;;
10497;SDS011;5296;51.060;13.750;2023-05-29T16:40:19;4.47;;;3.20;;
10497;SDS011;5296;51.060;13.750;2023-05-29T16:45:22;4.80;;;3.50;;
10497;SDS011;5296;51.060;13.750;2023-05-29T16:50:23;4.13;;;3.40;;
10497;SDS011;5296;51.060;13.750;2023-05-29T16:55:25;4.85;;;2.95;;
10497;SDS011;5296;51.060;13.750;2023-05-29T17:00:28;4.53;;;3.33;;
10497;SDS011;5296;51.060;13.750;2023-05-29T17:05:30;4.68;;;2.90;;
10497;SDS011;5296;51.060;13.750;2023-05-29T17:10:32;3.75;;;3.00;;
10497;SDS011;5296;51.060;13.750;2023-05-29T17:15:34;5.45;;;3.40;;
10497;SDS011;5296;51.060;13.750;2023-05-29T17:20:36;3.47;;;3.17;;
10497;SDS011;5296;51.060;13.750;2023-05-29T17:25:38;4.53;;;3.30;;
10497;SDS011;5296;51.060;13.750;2023-05-29T17:30:40;5.30;;;3.83;;
10497;SDS011;5296;51.060;13.750;2023-05-29T17:35:42;3.75;;;3.05;;
10497;SDS011;5296;51.060;13.750;2023-05-29T17:40:43;7.20;;;3.88;;
10497;SDS011;5296;51.060;13.750;2023-05-29T17:45:45;4.03;;;3.25;;
10497;SDS011;5296;51.060;13.750;2023-05-29T17:50:50;3.97;;;2.88;;
10497;SDS011;5296;51.060;13.750;2023-05-29T17:55:54;4.13;;;3.72;;
10497;SDS011;5296;51.060;13.750;2023-05-29T18:00:57;3.83;;;3.30;;
10497;SDS011;5296;51.060;13.750;2023-05-29T18:05:58;4.60;;;3.13;;
10497;SDS011;5296;51.060;13.750;2023-05-29T18:11:00;5.03;;;3.80;;
10497;SDS011;5296;51.060;13.750;2023-05-29T18:16:02;5.57;;;3.65;;
10497;SDS011;5296;51.060;13.750;2023-05-29T18:21:04;4.22;;;3.25;;
10497;SDS011;5296;51.060;13.750;2023-05-29T18:26:06;5.50;;;4.70;;
10497;SDS011;5296;51.060;13.750;2023-05-29T18:31:07;5.07;;;3.30;;
10497;SDS011;5296;51.060;13.750;2023-05-29T18:36:09;4.88;;;2.95;;
10497;SDS011;5296;51.060;13.750;2023-05-29T18:41:13;5.35;;;4.15;;
10497;SDS011;5296;51.060;13.750;2023-05-29T18:46:14;4.03;;;3.55;;
10497;SDS011;5296;51.060;13.750;2023-05-29T18:51:16;4.65;;;3.67;;
10497;SDS011;5296;51.060;13.750;2023-05-29T18:56:18;5.28;;;3.60;;
10497;SDS011;5296;51.060;13.750;2023-05-29T19:01:20;6.10;;;4.63;;
10497;SDS011;5296;51.060;13.750;2023-05-29T19:06:26;7.47;;;4.25;;
10497;SDS011;5296;51.060;13.750;2023-05-29T19:11:28;4.47;;;3.58;;
10497;SDS011;5296;51.060;13.750;2023-05-29T19:16:29;4.22;;;3.30;;
10497;SDS011;5296;51.060;13.750;2023-05-29T19:21:31;5.40;;;4.20;;
10497;SDS011;5296;51.060;13.750;2023-05-29T19:26:33;6.88;;;3.67;;
10497;SDS011;5296;51.060;13.750;2023-05-29T19:31:36;6.70;;;3.83;;
10497;SDS011;5296;51.060;13.750;2023-05-29T19:36:38;5.22;;;3.95;;
10497;SDS011;5296;51.060;13.750;2023-05-29T19:41:40;3.88;;;3.45;;
10497;SDS011;5296;51.060;13.750;2023-05-29T19:46:43;4.53;;;3.30;;
10497;SDS011;5296;51.060;13.750;2023-05-29T19:51:50;5.35;;;3.83;;
10497;SDS011;5296;51.060;13.750;2023-05-29T19:56:59;5.05;;;3.50;;
10497;SDS011;5296;51.060;13.750;2023-05-29T20:02:01;4.25;;;3.30;;
10497;SDS011;5296;51.060;13.750;2023-05-29T20:07:03;4.40;;;3.75;;
10497;SDS011;5296;51.060;13.750;2023-05-29T20:12:07;3.55;;;3.20;;
10497;SDS011;5296;51.060;13.750;2023-05-29T20:17:08;5.30;;;3.55;;
10497;SDS011;5296;51.060;13.750;2023-05-29T20:22:10;3.50;;;3.00;;
10497;SDS011;5296;51.060;13.750;2023-05-29T20:27:12;3.90;;;3.03;;
10497;SDS011;5296;51.060;13.750;2023-05-29T20:32:14;5.93;;;3.33;;
10497;SDS011;5296;51.060;13.750;2023-05-29T20:37:15;5.43;;;3.50;;
10497;SDS011;5296;51.060;13.750;2023-05-29T20:42:17;6.00;;;3.85;;
10497;SDS011;5296;51.060;13.750;2023-05-29T20:47:22;6.78;;;3.60;;
10497;SDS011;5296;51.060;13.750;2023-05-29T20:52:24;5.30;;;3.47;;
10497;SDS011;5296;51.060;13.750;2023-05-29T20:57:29;5.95;;;3.80;;
10497;SDS011;5296;51.060;13.750;2023-05-29T21:02:31;6.57;;;3.92;;
10497;SDS011;5296;51.060;13.750;2023-05-29T21:07:36;5.13;;;4.00;;
10497;SDS011;5296;51.060;13.750;2023-05-29T21:12:38;3.53;;;3.17;;
10497;SDS011;5296;51.060;13.750;2023-05-29T21:17:40;5.70;;;3.40;;
10497;SDS011;5296;51.060;13.750;2023-05-29T21:22:41;5.13;;;3.60;;
10497;SDS011;5296;51.060;13.750;2023-05-29T21:27:43;6.35;;;3.35;;
10497;SDS011;5296;51.060;13.750;2023-05-29T21:32:45;5.47;;;3.42;;
10497;SDS011;5296;51.060;13.750;2023-05-29T21:37:47;3.47;;;3.17;;
10497;SDS011;5296;51.060;13.750;2023-05-29T21:42:49;3.67;;;3.30;;
10497;SDS011;5296;51.060;13.750;2023-05-29T21:47:52;6.40;;;3.38;;
10497;SDS011;5296;51.060;13.750;2023-05-29T21:52:55;4.43;;;3.20;;
10497;SDS011;5296;51.060;13.750;2023-05-29T21:57:57;5.10;;;3.05;;
10497;SDS011;5296;51.060;13.750;2023-05-29T22:02:58;6.80;;;3.03;;
10497;SDS011;5296;51.060;13.750;2023-05-29T22:08:00;4.63;;;2.88;;
10497;SDS011;5296;51.060;13.750;2023-05-29T22:13:02;4.82;;;3.22;;
10497;SDS011;5296;51.060;13.750;2023-05-29T22:18:04;4.47;;;3.00;;
10497;SDS011;5296;51.060;13.750;2023-05-29T22:23:06;4.78;;;2.80;;
10497;SDS011;5296;51.060;13.750;2023-05-29T22:28:18;7.75;;;2.83;;
10497;SDS011;5296;51.060;13.750;2023-05-29T22:33:19;5.25;;;2.78;;
10497;SDS011;5296;51.060;13.750;2023-05-29T22:38:22;4.07;;;2.42;;
10497;SDS011;5296;51.060;13.750;2023-05-29T22:43:23;3.40;;;2.53;;
10497;SDS011;5296;51.060;13.750;2023-05-29T22:48:25;4.88;;;2.83;;
10497;SDS011;5296;51.060;13.750;2023-05-29T22:53:27;4.13;;;2.75;;
10497;SDS011;5296;51.060;13.750;2023-05-29T22:58:29;4.35;;;3.05;;
10497;SDS011;5296;51.060;13.750;2023-05-29T23:03:30;5.93;;;2.80;;
10497;SDS011;5296;51.060;13.750;2023-05-29T23:08:32;2.83;;;2.50;;
10497;SDS011;5296;51.060;13.750;2023-05-29T23:13:34;3.63;;;2.70;;
10497;SDS011;5296;51.060;13.750;2023-05-29T23:18:35;3.03;;;2.70;;
10497;SDS011;5296;51.060;13.750;2023-05-29T23:23:37;4.50;;;2.90;;
10497;SDS011;5296;51.060;13.750;2023-05-29T23:28:39;4.53;;;2.90;;
10497;SDS011;5296;51.060;13.750;2023-05-29T23:33:41;3.00;;;2.53;;
10497;SDS011;5296;51.060;13.750;2023-05-29T23:38:43;4.97;;;2.30;;
10497;SDS011;5296;51.060;13.750;2023-05-29T23:43:44;4.30;;;2.83;;
10497;SDS011;5296;51.060;13.750;2023-05-29T23:48:46;4.15;;;2.75;;
10497;SDS011;5296;51.060;13.750;2023-05-29T23:53:49;3.45;;;2.28;;
10497;SDS011;5296;51.060;13.750;2023-05-29T23:58:50;3.05;;;2.45;;
